createdAt,value
2022-08-14T00:01:23.832Z,3.20
2022-08-14T00:03:29.222Z,3.17
2022-08-14T00:05:31.145Z,3.20
2022-08-14T00:07:32.706Z,3.20
2022-08-14T00:09:55.989Z,3.28
2022-08-14T00:11:57.920Z,3.40
2022-08-14T00:14:02.219Z,2.83
2022-08-14T00:16:04.170Z,3.50
2022-08-14T00:18:14.426Z,2.90
2022-08-14T00:20:24.101Z,3.40
2022-08-14T00:22:57.219Z,3.42
2022-08-14T00:24:53.515Z,3.70
2022-08-14T00:26:55.105Z,3.47
2022-08-14T00:28:57.257Z,3.10
2022-08-14T00:31:00.084Z,3.40
2022-08-14T00:33:14.505Z,3.47
2022-08-14T00:35:17.583Z,3.92
2022-08-14T00:37:19.193Z,2.95
2022-08-14T00:39:21.221Z,3.00
2022-08-14T00:41:22.766Z,3.35
2022-08-14T00:43:25.065Z,3.67
2022-08-14T00:45:33.868Z,3.45
2022-08-14T00:47:42.984Z,3.00
2022-08-14T00:49:46.328Z,3.35
2022-08-14T00:51:49.665Z,3.35
2022-08-14T00:53:54.309Z,3.70
2022-08-14T00:55:57.674Z,3.63
2022-08-14T00:58:19.014Z,3.35
2022-08-14T01:00:37.531Z,3.63
2022-08-14T01:02:53.850Z,3.22
2022-08-14T01:04:59.159Z,3.63
2022-08-14T01:07:04.995Z,3.63
2022-08-14T01:09:10.692Z,3.58
2022-08-14T01:11:18.909Z,3.25
2022-08-14T01:15:57.605Z,3.53
2022-08-14T01:18:20.980Z,3.30
2022-08-14T01:20:41.719Z,3.35
2022-08-14T01:22:46.042Z,3.75
2022-08-14T01:24:48.346Z,3.63
2022-08-14T01:26:53.333Z,3.80
2022-08-14T01:28:59.391Z,3.40
2022-08-14T01:31:02.072Z,3.55
2022-08-14T01:33:04.384Z,3.90
2022-08-14T01:35:19.346Z,3.90
2022-08-14T01:37:31.950Z,4.05
2022-08-14T01:39:37.902Z,3.60
2022-08-14T01:41:40.247Z,3.55
2022-08-14T01:43:45.129Z,3.90
2022-08-14T01:46:06.987Z,3.58
2022-08-14T01:48:13.194Z,3.38
2022-08-14T01:50:16.944Z,4.32
2022-08-14T01:52:34.505Z,3.70
2022-08-14T01:54:40.149Z,3.78
2022-08-14T01:56:42.703Z,3.80
2022-08-14T01:58:57.926Z,3.97
2022-08-14T02:01:00.337Z,3.70
2022-08-14T02:03:02.033Z,3.80
2022-08-14T02:05:03.867Z,3.97
2022-08-14T02:07:07.379Z,3.70
2022-08-14T02:09:22.514Z,3.33
2022-08-14T02:11:25.946Z,3.83
2022-08-14T02:13:27.435Z,3.22
2022-08-14T02:15:32.285Z,3.55
2022-08-14T02:17:34.216Z,3.78
2022-08-14T02:19:35.920Z,3.70
2022-08-14T02:21:43.382Z,3.70
2022-08-14T02:23:53.621Z,3.42
2022-08-14T02:25:55.307Z,3.80
2022-08-14T02:28:26.017Z,3.88
2022-08-14T02:30:18.743Z,3.70
2022-08-14T02:32:30.552Z,3.47
2022-08-14T02:34:38.500Z,3.60
2022-08-14T02:37:02.683Z,3.88
2022-08-14T02:39:10.246Z,3.63
2022-08-14T02:41:13.082Z,3.53
2022-08-14T02:43:14.797Z,3.80
2022-08-14T02:45:17.667Z,3.78
2022-08-14T02:47:21.072Z,3.80
2022-08-14T02:49:26.610Z,3.85
2022-08-14T02:51:36.971Z,3.75
2022-08-14T02:53:46.450Z,3.58
2022-08-14T02:55:48.124Z,3.90
2022-08-14T02:57:58.178Z,3.58
2022-08-14T03:00:09.229Z,3.70
2022-08-14T03:02:48.725Z,3.35
2022-08-14T03:04:34.523Z,3.70
2022-08-14T03:06:57.768Z,3.88
2022-08-14T03:08:59.932Z,3.90
2022-08-14T03:11:07.732Z,3.75
2022-08-14T03:13:19.551Z,3.60
2022-08-14T03:15:22.986Z,3.35
2022-08-14T03:17:26.954Z,4.03
2022-08-14T03:19:33.637Z,3.70
2022-08-14T03:21:37.145Z,3.60
2022-08-14T03:23:40.472Z,3.40
2022-08-14T03:25:44.393Z,3.30
2022-08-14T03:27:48.330Z,3.38
2022-08-14T03:30:00.335Z,3.50
2022-08-14T03:32:07.366Z,3.67
2022-08-14T03:34:11.468Z,3.45
2022-08-14T03:37:28.766Z,3.70
2022-08-14T03:39:14.043Z,3.78
2022-08-14T03:41:23.182Z,3.85
2022-08-14T03:43:24.988Z,3.70
2022-08-14T03:45:35.217Z,3.35
2022-08-14T03:47:56.070Z,3.50
2022-08-14T03:50:00.467Z,3.17
2022-08-14T03:52:07.860Z,3.70
2022-08-14T03:54:26.338Z,3.15
2022-08-14T03:56:30.029Z,3.83
2022-08-14T03:58:35.016Z,3.00
2022-08-14T04:00:42.784Z,3.50
2022-08-14T04:02:53.225Z,3.40
2022-08-14T04:04:55.095Z,3.35
2022-08-14T04:06:59.974Z,3.50
2022-08-14T04:09:01.625Z,3.25
2022-08-14T04:11:10.232Z,3.22
2022-08-14T04:13:18.639Z,3.63
2022-08-14T04:15:21.247Z,3.55
2022-08-14T04:17:26.193Z,3.42
2022-08-14T04:19:32.867Z,3.15
2022-08-14T04:21:39.994Z,3.58
2022-08-14T04:24:01.347Z,3.47
2022-08-14T04:26:04.813Z,3.25
2022-08-14T04:29:06.834Z,3.60
2022-08-14T04:30:38.612Z,3.70
2022-08-14T04:33:02.074Z,3.53
2022-08-14T04:35:07.799Z,3.70
2022-08-14T04:37:30.956Z,3.67
2022-08-14T04:39:56.940Z,4.18
2022-08-14T04:42:17.656Z,3.50
2022-08-14T04:44:26.653Z,3.20
2022-08-14T04:46:55.709Z,3.50
2022-08-14T04:49:00.202Z,3.53
2022-08-14T04:51:04.238Z,3.60
2022-08-14T04:53:05.823Z,4.05
2022-08-14T04:55:08.234Z,4.03
2022-08-14T04:57:13.341Z,3.80
2022-08-14T04:59:14.982Z,4.30
2022-08-14T05:01:19.537Z,3.85
2022-08-14T05:03:25.327Z,3.60
2022-08-14T05:05:26.938Z,4.22
2022-08-14T05:07:46.272Z,3.65
2022-08-14T05:09:55.226Z,4.10
2022-08-14T05:11:56.753Z,3.92
2022-08-14T05:14:46.446Z,4.03
2022-08-14T05:16:40.610Z,3.55
2022-08-14T05:19:18.399Z,3.30
2022-08-14T05:21:57.087Z,3.95
2022-08-14T05:23:34.584Z,4.05
2022-08-14T05:25:38.753Z,4.28
2022-08-14T05:27:40.346Z,4.18
2022-08-14T05:29:44.841Z,4.15
2022-08-14T05:31:46.607Z,3.75
2022-08-14T05:33:56.603Z,3.75
2022-08-14T05:36:01.211Z,3.78
2022-08-14T05:38:22.312Z,3.88
2022-08-14T05:40:32.878Z,3.60
2022-08-14T05:42:34.620Z,3.30
2022-08-14T05:44:36.161Z,3.70
2022-08-14T05:46:37.782Z,3.90
2022-08-14T05:48:43.347Z,3.60
2022-08-14T05:50:45.359Z,3.35
2022-08-14T05:52:48.644Z,3.42
2022-08-14T05:54:50.133Z,3.15
2022-08-14T05:56:51.621Z,3.72
2022-08-14T05:58:53.919Z,3.42
2022-08-14T06:00:56.805Z,3.47
2022-08-14T06:03:00.448Z,3.40
2022-08-14T06:05:03.073Z,3.40
2022-08-14T06:07:04.834Z,3.40
2022-08-14T06:09:10.060Z,3.78
2022-08-14T06:11:20.082Z,3.42
2022-08-14T06:13:31.562Z,3.10
2022-08-14T06:15:33.413Z,3.78
2022-08-14T06:17:46.436Z,3.33
2022-08-14T06:19:48.584Z,3.22
2022-08-14T06:21:58.091Z,3.42
2022-08-14T06:24:00.591Z,3.33
2022-08-14T06:26:02.885Z,3.70
2022-08-14T06:28:05.304Z,3.70
2022-08-14T06:30:30.343Z,3.40
2022-08-14T06:32:52.618Z,3.60
2022-08-14T06:35:02.636Z,3.78
2022-08-14T06:37:11.063Z,3.25
2022-08-14T06:39:12.971Z,3.25
2022-08-14T06:41:20.710Z,3.25
2022-08-14T06:43:32.833Z,3.22
2022-08-14T06:45:36.315Z,3.55
2022-08-14T06:47:43.847Z,3.38
2022-08-14T06:49:55.948Z,3.42
2022-08-14T06:52:00.709Z,3.40
2022-08-14T06:54:03.419Z,3.03
2022-08-14T06:56:04.984Z,3.42
2022-08-14T06:58:06.480Z,3.63
2022-08-14T07:00:30.506Z,3.35
2022-08-14T07:02:51.373Z,3.33
2022-08-14T07:05:13.145Z,3.60
2022-08-14T07:07:23.345Z,3.50
2022-08-14T07:09:27.759Z,2.97
2022-08-14T07:11:29.668Z,3.47
2022-08-14T07:13:31.551Z,3.15
2022-08-14T07:15:39.472Z,3.10
2022-08-14T07:17:52.207Z,3.33
2022-08-14T07:19:55.523Z,3.13
2022-08-14T07:21:58.924Z,3.30
2022-08-14T07:26:23.715Z,2.92
2022-08-14T07:28:35.782Z,3.20
2022-08-14T07:30:37.806Z,2.90
2022-08-14T07:32:43.818Z,3.40
2022-08-14T07:34:45.708Z,3.28
2022-08-14T07:36:58.218Z,3.10
2022-08-14T07:39:03.541Z,3.50
2022-08-14T07:41:14.704Z,3.17
2022-08-14T07:43:18.452Z,3.25
2022-08-14T07:45:22.829Z,3.00
2022-08-14T07:47:25.011Z,3.38
2022-08-14T07:49:27.372Z,3.38
2022-08-14T07:51:34.048Z,3.38
2022-08-14T07:53:40.382Z,3.97
2022-08-14T07:55:43.670Z,3.03
2022-08-14T07:57:46.723Z,3.33
2022-08-14T07:59:49.528Z,3.50
2022-08-14T08:01:52.248Z,3.30
2022-08-14T08:03:59.565Z,3.03
2022-08-14T08:06:02.465Z,3.47
2022-08-14T08:08:26.956Z,3.45
2022-08-14T08:11:01.474Z,2.88
2022-08-14T08:12:56.906Z,3.15
2022-08-14T08:15:03.239Z,3.67
2022-08-14T08:17:10.673Z,3.33
2022-08-14T08:19:14.253Z,3.53
2022-08-14T08:21:16.311Z,3.10
2022-08-14T08:23:23.308Z,3.25
2022-08-14T08:25:39.645Z,3.00
2022-08-14T08:27:44.631Z,3.05
2022-08-14T08:29:50.765Z,3.70
2022-08-14T08:31:52.842Z,3.25
2022-08-14T08:33:54.396Z,3.17
2022-08-14T08:36:01.123Z,3.13
2022-08-14T08:39:14.247Z,3.53
2022-08-14T08:40:36.251Z,3.65
2022-08-14T08:42:44.801Z,3.50
2022-08-14T08:44:54.360Z,3.80
2022-08-14T08:47:01.257Z,3.40
2022-08-14T08:51:03.696Z,3.30
2022-08-14T08:53:10.657Z,3.40
2022-08-14T08:55:13.456Z,3.70
2022-08-14T08:57:15.632Z,3.22
2022-08-14T08:59:31.327Z,2.97
2022-08-14T09:01:35.672Z,2.95
2022-08-14T09:03:44.006Z,3.30
2022-08-14T09:06:02.730Z,3.50
2022-08-14T09:08:30.179Z,3.05
2022-08-14T09:10:34.122Z,3.55
2022-08-14T09:12:35.646Z,3.72
2022-08-14T09:14:37.350Z,3.40
2022-08-14T09:16:45.167Z,3.50
2022-08-14T09:18:50.259Z,3.55
2022-08-14T09:20:58.624Z,3.60
2022-08-14T09:23:00.643Z,4.07
2022-08-14T09:25:02.240Z,3.53
2022-08-14T09:27:04.099Z,3.75
2022-08-14T09:29:10.473Z,3.42
2022-08-14T09:31:17.732Z,3.58
2022-08-14T09:33:35.637Z,3.90
2022-08-14T09:36:15.399Z,3.45
2022-08-14T09:38:28.969Z,3.88
2022-08-14T09:40:48.018Z,3.28
2022-08-14T09:43:03.308Z,3.60
2022-08-14T09:45:30.340Z,3.53
2022-08-14T09:47:48.953Z,3.88
2022-08-14T09:49:53.339Z,3.58
2022-08-14T09:52:03.772Z,3.78
2022-08-14T09:54:43.460Z,3.13
2022-08-14T09:56:51.684Z,3.20
2022-08-14T09:59:15.076Z,3.83
2022-08-14T10:01:19.626Z,3.67
2022-08-14T10:03:34.391Z,3.17
2022-08-14T10:05:39.056Z,3.45
2022-08-14T10:07:53.513Z,3.75
2022-08-14T10:10:02.204Z,3.58
2022-08-14T10:12:05.414Z,3.40
2022-08-14T10:14:35.470Z,3.47
2022-08-14T10:16:43.068Z,3.42
2022-08-14T10:18:51.941Z,3.42
2022-08-14T10:21:00.754Z,3.00
2022-08-14T10:23:23.139Z,3.40
2022-08-14T10:25:26.843Z,3.38
2022-08-14T10:27:29.076Z,3.75
2022-08-14T10:29:37.458Z,3.53
2022-08-14T10:36:02.815Z,3.38
2022-08-14T10:38:07.355Z,3.17
2022-08-14T10:40:32.468Z,3.30
2022-08-14T10:42:40.206Z,2.90
2022-08-14T10:44:47.382Z,3.22
2022-08-14T10:47:41.686Z,3.15
2022-08-14T10:49:20.357Z,3.30
2022-08-14T10:51:29.979Z,3.40
2022-08-14T10:53:39.817Z,3.10
2022-08-14T10:55:45.480Z,3.35
2022-08-14T10:57:52.514Z,2.85
2022-08-14T10:59:59.731Z,3.50
2022-08-14T11:02:01.322Z,3.15
2022-08-14T11:04:03.271Z,2.80
2022-08-14T11:06:17.262Z,3.30
2022-08-14T11:08:31.252Z,3.35
2022-08-14T11:10:56.699Z,2.95
2022-08-14T11:12:58.712Z,2.92
2022-08-14T11:15:02.598Z,3.08
2022-08-14T11:17:05.721Z,3.17
2022-08-14T11:19:13.514Z,2.88
2022-08-14T11:21:18.666Z,3.17
2022-08-14T11:23:38.464Z,3.03
2022-08-14T11:25:53.269Z,2.97
2022-08-14T11:27:57.215Z,2.83
2022-08-14T11:30:51.264Z,2.85
2022-08-14T11:32:25.274Z,3.03
2022-08-14T11:34:29.901Z,2.90
2022-08-14T11:37:02.209Z,2.72
2022-08-14T11:38:58.011Z,2.92
2022-08-14T11:41:00.378Z,3.03
2022-08-14T11:43:09.209Z,2.67
2022-08-14T11:45:17.141Z,3.17
2022-08-14T11:47:20.592Z,2.80
2022-08-14T11:49:34.899Z,2.38
2022-08-14T11:51:53.787Z,3.05
2022-08-14T11:54:04.189Z,2.70
2022-08-14T11:56:07.040Z,2.85
2022-08-14T11:58:24.423Z,2.60
2022-08-14T12:00:31.872Z,3.00
2022-08-14T12:03:03.348Z,3.10
2022-08-14T12:04:55.808Z,2.45
2022-08-14T12:06:57.451Z,2.97
2022-08-14T12:09:00.808Z,2.45
2022-08-14T12:11:04.096Z,3.13
2022-08-14T12:13:14.230Z,3.20
2022-08-14T12:15:29.664Z,2.90
2022-08-14T12:17:49.269Z,2.80
2022-08-14T12:19:58.827Z,2.60
2022-08-14T12:22:00.493Z,2.90
2022-08-14T12:24:08.579Z,3.00
2022-08-14T12:26:40.015Z,3.05
2022-08-14T12:29:00.160Z,2.83
2022-08-14T12:31:13.403Z,2.83
2022-08-14T12:33:33.237Z,2.58
2022-08-14T12:35:42.851Z,2.83
2022-08-14T12:37:49.660Z,2.70
2022-08-14T12:39:52.228Z,3.22
2022-08-14T12:42:06.631Z,2.70
2022-08-14T12:44:08.511Z,3.33
2022-08-14T12:46:11.619Z,3.28
2022-08-14T12:48:31.353Z,2.90
2022-08-14T12:50:39.838Z,2.78
2022-08-14T12:53:02.220Z,3.40
2022-08-14T12:55:10.588Z,2.95
2022-08-14T12:57:20.155Z,3.22
2022-08-14T12:59:33.183Z,3.25
2022-08-14T13:01:59.820Z,2.92
2022-08-14T13:04:17.573Z,3.03
2022-08-14T13:08:33.630Z,2.85
2022-08-14T13:10:51.150Z,3.08
2022-08-14T13:13:15.094Z,2.75
2022-08-14T13:15:19.484Z,2.75
2022-08-14T13:17:22.545Z,3.10
2022-08-14T13:19:26.821Z,3.30
2022-08-14T13:21:58.861Z,3.20
2022-08-14T13:23:55.604Z,2.65
2022-08-14T13:26:00.493Z,3.00
2022-08-14T13:28:03.016Z,3.58
2022-08-14T13:30:10.827Z,3.17
2022-08-14T13:32:26.124Z,2.92
2022-08-14T13:34:29.467Z,3.95
2022-08-14T13:36:54.423Z,3.08
2022-08-14T13:38:57.356Z,3.42
2022-08-14T13:40:58.890Z,2.72
2022-08-14T13:43:00.420Z,3.15
2022-08-14T13:45:04.766Z,3.30
2022-08-14T13:47:06.899Z,2.80
2022-08-14T13:49:12.126Z,2.88
2022-08-14T13:51:17.718Z,3.38
2022-08-14T13:53:22.906Z,3.08
2022-08-14T13:55:29.917Z,3.13
2022-08-14T13:57:36.088Z,3.25
2022-08-14T13:59:45.492Z,3.10
2022-08-14T14:01:51.595Z,3.10
2022-08-14T14:03:56.425Z,3.15
2022-08-14T14:05:58.765Z,3.22
2022-08-14T14:08:00.833Z,2.88
2022-08-14T14:10:07.433Z,3.17
2022-08-14T14:12:38.220Z,3.13
2022-08-14T14:14:51.444Z,3.15
2022-08-14T14:16:53.411Z,2.70
2022-08-14T14:19:06.850Z,2.75
2022-08-14T14:21:11.439Z,2.90
2022-08-14T14:23:17.616Z,3.13
2022-08-14T14:25:22.012Z,2.90
2022-08-14T14:27:42.686Z,2.67
2022-08-14T14:29:50.491Z,2.53
2022-08-14T14:32:01.803Z,3.25
2022-08-14T14:34:07.289Z,2.70
2022-08-14T14:36:20.996Z,3.08
2022-08-14T14:38:30.785Z,3.00
2022-08-14T14:40:52.261Z,3.25
2022-08-14T14:42:57.600Z,2.63
2022-08-14T14:45:18.022Z,2.38
2022-08-14T14:47:22.761Z,2.78
2022-08-14T14:49:41.803Z,2.80
2022-08-14T14:51:51.375Z,2.90
2022-08-14T14:53:54.510Z,3.25
2022-08-14T14:56:51.210Z,2.85
2022-08-14T14:58:20.546Z,2.67
2022-08-14T15:00:22.288Z,2.90
2022-08-14T15:02:36.548Z,2.90
2022-08-14T15:04:43.633Z,3.22
2022-08-14T15:06:47.897Z,2.53
2022-08-14T15:08:56.473Z,3.30
2022-08-14T15:11:00.544Z,3.42
2022-08-14T15:13:04.006Z,2.67
2022-08-14T15:15:08.388Z,3.00
2022-08-14T15:17:11.028Z,3.05
2022-08-14T15:19:12.693Z,2.60
2022-08-14T15:21:15.607Z,2.92
2022-08-14T15:23:17.492Z,2.63
2022-08-14T15:25:24.428Z,2.72
2022-08-14T15:27:26.951Z,2.97
2022-08-14T15:29:29.180Z,3.08
2022-08-14T15:31:37.045Z,2.67
2022-08-14T15:34:33.486Z,2.78
2022-08-14T15:36:25.618Z,2.78
2022-08-14T15:38:33.060Z,2.97
2022-08-14T15:40:41.670Z,2.65
2022-08-14T15:42:43.264Z,2.40
2022-08-14T15:44:57.955Z,2.88
2022-08-14T15:49:08.887Z,2.63
2022-08-14T15:51:11.512Z,3.15
2022-08-14T15:53:14.681Z,2.53
2022-08-14T15:55:16.416Z,2.60
2022-08-14T15:57:19.866Z,3.05
2022-08-14T15:59:22.218Z,2.13
2022-08-14T16:01:50.600Z,2.70
2022-08-14T16:03:48.993Z,2.85
2022-08-14T16:05:50.812Z,2.90
2022-08-14T16:07:53.676Z,5.28
2022-08-14T16:10:27.611Z,3.40
2022-08-14T16:12:19.251Z,3.30
2022-08-14T16:14:41.500Z,4.75
2022-08-14T16:16:50.122Z,4.35
2022-08-14T16:18:58.145Z,4.03
2022-08-14T16:21:05.386Z,5.63
2022-08-14T16:23:11.772Z,5.00
2022-08-14T16:25:15.622Z,5.22
2022-08-14T16:27:33.498Z,3.67
2022-08-14T16:29:40.164Z,3.05
2022-08-14T16:31:44.851Z,3.22
2022-08-14T16:33:59.031Z,3.03
2022-08-14T16:36:04.265Z,2.85
2022-08-14T16:38:46.083Z,2.80
2022-08-14T16:41:15.569Z,2.90
2022-08-14T16:43:25.811Z,2.67
2022-08-14T16:45:29.160Z,2.63
2022-08-14T16:47:34.777Z,2.80
2022-08-14T16:50:04.625Z,2.85
2022-08-14T16:51:58.368Z,3.28
2022-08-14T16:54:02.381Z,3.05
2022-08-14T16:56:17.057Z,2.92
2022-08-14T16:58:29.905Z,2.58
2022-08-14T17:00:47.900Z,2.95
2022-08-14T17:03:04.645Z,2.90
2022-08-14T17:05:24.774Z,5.53
2022-08-14T17:07:26.447Z,3.80
2022-08-14T17:09:43.305Z,4.00
2022-08-14T17:12:00.604Z,3.05
2022-08-14T17:14:10.556Z,3.15
2022-08-14T17:16:24.617Z,3.28
2022-08-14T17:18:48.861Z,2.85
2022-08-14T17:21:26.759Z,3.10
2022-08-14T17:23:33.514Z,3.38
2022-08-14T17:25:37.068Z,3.40
2022-08-14T17:27:38.896Z,3.97
2022-08-14T17:29:56.760Z,4.15
2022-08-14T17:32:28.443Z,3.95
2022-08-14T17:34:52.179Z,3.50
2022-08-14T17:36:54.489Z,3.90
2022-08-14T17:39:08.560Z,3.58
2022-08-14T17:41:27.104Z,3.30
2022-08-14T17:43:41.934Z,3.15
2022-08-14T17:45:46.886Z,3.58
2022-08-14T17:47:49.388Z,3.10
2022-08-14T17:49:53.574Z,3.47
2022-08-14T17:52:16.818Z,3.00
2022-08-14T17:54:22.778Z,3.10
2022-08-14T17:56:38.652Z,3.75
2022-08-14T17:58:42.153Z,3.28
2022-08-14T18:00:43.870Z,3.67
2022-08-14T18:02:50.667Z,3.08
2022-08-14T18:04:55.120Z,3.20
2022-08-14T18:07:16.322Z,4.38
2022-08-14T18:09:24.925Z,3.67
2022-08-14T18:11:45.953Z,3.60
2022-08-14T18:13:52.654Z,3.67
2022-08-14T18:15:57.857Z,3.60
2022-08-14T18:18:01.556Z,3.33
2022-08-14T18:21:24.177Z,3.53
2022-08-14T18:22:32.184Z,3.50
2022-08-14T18:24:40.845Z,3.53
2022-08-14T18:26:45.098Z,3.67
2022-08-14T18:28:51.871Z,3.67
2022-08-14T18:31:43.820Z,3.83
2022-08-14T18:33:53.979Z,3.35
2022-08-14T18:35:58.126Z,3.22
2022-08-14T18:38:25.427Z,3.53
2022-08-14T18:40:34.911Z,3.53
2022-08-14T18:42:43.963Z,3.50
2022-08-14T18:44:54.833Z,3.53
2022-08-14T18:47:14.796Z,3.67
2022-08-14T18:49:17.105Z,3.97
2022-08-14T18:51:44.868Z,3.47
2022-08-14T18:53:59.268Z,3.40
2022-08-14T18:56:09.861Z,3.47
2022-08-14T18:58:27.448Z,4.15
2022-08-14T19:00:40.384Z,3.70
2022-08-14T19:02:43.561Z,3.67
2022-08-14T19:04:45.100Z,3.92
2022-08-14T19:06:56.418Z,3.78
2022-08-14T19:08:58.356Z,4.10
2022-08-14T19:11:04.007Z,3.85
2022-08-14T19:13:12.085Z,3.53
2022-08-14T19:15:25.743Z,3.55
2022-08-14T19:18:14.475Z,3.78
2022-08-14T19:20:08.130Z,3.38
2022-08-14T19:22:29.933Z,3.40
2022-08-14T19:24:34.595Z,3.63
2022-08-14T19:26:54.302Z,3.25
2022-08-14T19:28:57.493Z,4.18
2022-08-14T19:31:37.001Z,3.88
2022-08-14T19:33:47.540Z,3.70
2022-08-14T19:36:00.319Z,4.35
2022-08-14T19:38:02.016Z,3.65
2022-08-14T19:40:15.383Z,4.03
2022-08-14T19:42:36.402Z,3.92
2022-08-14T19:44:48.608Z,3.72
2022-08-14T19:47:01.226Z,4.10
2022-08-14T19:49:06.035Z,3.97
2022-08-14T19:51:08.073Z,4.00
2022-08-14T19:53:17.521Z,4.00
2022-08-14T19:55:20.673Z,4.05
2022-08-14T19:57:36.047Z,4.03
2022-08-14T19:59:57.734Z,4.05
2022-08-14T20:01:59.421Z,4.35
2022-08-14T20:04:03.529Z,4.05
2022-08-14T20:06:05.666Z,4.00
2022-08-14T20:09:05.072Z,4.13
2022-08-14T20:11:06.879Z,4.40
2022-08-14T20:12:59.919Z,3.90
2022-08-14T20:15:17.789Z,4.50
2022-08-14T20:17:21.932Z,4.13
2022-08-14T20:19:28.687Z,4.10
2022-08-14T20:21:34.618Z,4.60
2022-08-14T20:23:37.990Z,4.68
2022-08-14T20:25:57.174Z,4.07
2022-08-14T20:28:30.230Z,7.85
2022-08-14T20:30:34.124Z,15.23
2022-08-14T20:32:44.319Z,8.18
2022-08-14T20:34:51.393Z,5.18
2022-08-14T20:37:26.225Z,5.00
2022-08-14T20:39:34.375Z,4.07
2022-08-14T20:41:36.447Z,4.50
2022-08-14T20:43:59.598Z,10.90
2022-08-14T20:46:11.475Z,5.50
2022-08-14T20:48:52.803Z,3.78
2022-08-14T20:50:45.131Z,4.28
2022-08-14T20:52:48.667Z,4.15
2022-08-14T20:54:51.555Z,4.60
2022-08-14T20:56:53.393Z,4.82
2022-08-14T20:58:54.911Z,4.40
2022-08-14T21:01:05.949Z,4.47
2022-08-14T21:03:57.008Z,4.30
2022-08-14T21:06:17.073Z,4.53
2022-08-14T21:08:25.680Z,4.50
2022-08-14T21:10:35.604Z,5.35
2022-08-14T21:12:39.178Z,3.95
2022-08-14T21:15:01.263Z,4.75
2022-08-14T21:17:02.855Z,4.53
2022-08-14T21:19:04.352Z,4.28
2022-08-14T21:21:08.649Z,4.47
2022-08-14T21:23:12.256Z,4.45
2022-08-14T21:25:13.914Z,3.90
2022-08-14T21:27:20.011Z,5.03
2022-08-14T21:29:24.034Z,3.92
2022-08-14T21:31:29.904Z,4.53
2022-08-14T21:33:34.271Z,4.78
2022-08-14T21:35:42.146Z,4.90
2022-08-14T21:37:45.011Z,5.13
2022-08-14T21:39:48.074Z,5.22
2022-08-14T21:42:00.073Z,5.07
2022-08-14T21:44:17.173Z,5.25
2022-08-14T21:46:20.010Z,4.55
2022-08-14T21:48:25.341Z,4.68
2022-08-14T21:50:38.750Z,4.90
2022-08-14T21:53:00.838Z,5.03
2022-08-14T21:55:09.543Z,4.80
2022-08-14T21:57:15.367Z,4.20
2022-08-14T21:59:22.584Z,4.82
2022-08-14T22:01:26.494Z,5.10
2022-08-14T22:03:54.375Z,5.15
2022-08-14T22:05:56.869Z,4.60
2022-08-14T22:07:58.755Z,4.30
2022-08-14T22:10:00.315Z,4.40
2022-08-14T22:12:09.483Z,4.55
2022-08-14T22:14:25.513Z,4.63
2022-08-14T22:16:40.298Z,4.15
2022-08-14T22:18:51.292Z,4.22
2022-08-14T22:20:56.567Z,4.40
2022-08-14T22:23:04.363Z,4.32
2022-08-14T22:25:08.565Z,4.05
2022-08-14T22:27:17.962Z,4.35
2022-08-14T22:29:23.194Z,4.38
2022-08-14T22:31:25.156Z,3.80
2022-08-14T22:33:36.930Z,3.63
2022-08-14T22:35:39.870Z,3.70
2022-08-14T22:37:44.649Z,3.55
2022-08-14T22:40:46.146Z,3.28
2022-08-14T22:42:19.271Z,3.38
2022-08-14T22:44:25.936Z,3.80
2022-08-14T22:46:30.943Z,3.60
2022-08-14T22:48:32.462Z,4.60
2022-08-14T22:50:34.017Z,3.75
2022-08-14T22:52:38.467Z,3.45
2022-08-14T22:54:53.041Z,3.83
2022-08-14T22:56:56.559Z,3.80
2022-08-14T22:59:00.929Z,3.45
2022-08-14T23:01:10.148Z,3.72
2022-08-14T23:03:16.973Z,3.50
2022-08-14T23:05:19.317Z,3.53
2022-08-14T23:08:59.555Z,3.67
2022-08-14T23:10:31.881Z,3.30
2022-08-14T23:12:29.691Z,3.33
2022-08-14T23:14:31.992Z,3.38
2022-08-14T23:16:35.660Z,3.90
2022-08-14T23:18:38.864Z,3.63
2022-08-14T23:20:42.360Z,3.50
2022-08-14T23:22:48.352Z,3.20
2022-08-14T23:24:52.895Z,3.50
2022-08-14T23:26:58.370Z,3.55
2022-08-14T23:29:00.074Z,3.25
2022-08-14T23:31:01.963Z,3.30
2022-08-14T23:33:03.900Z,3.45
2022-08-14T23:35:07.225Z,3.28
2022-08-14T23:37:08.891Z,3.15
2022-08-14T23:39:18.999Z,3.28
2022-08-14T23:41:21.455Z,3.70
2022-08-14T23:43:23.320Z,3.42
2022-08-14T23:45:27.347Z,3.30
2022-08-14T23:47:51.854Z,3.50
2022-08-14T23:50:03.476Z,3.13
2022-08-14T23:52:55.440Z,3.28
2022-08-14T23:54:48.995Z,3.45
2022-08-14T23:57:02.699Z,3.20
2022-08-14T23:59:04.741Z,3.60
